createdAt,value
2018-09-02T00:01:49.179Z,11.59
2018-09-02T00:04:17.077Z,11.58
2018-09-02T00:06:44.656Z,11.57
2018-09-02T00:09:12.297Z,11.57
2018-09-02T00:11:40.300Z,11.57
2018-09-02T00:14:07.919Z,11.58
2018-09-02T00:16:35.546Z,11.60
2018-09-02T00:19:03.456Z,11.60
2018-09-02T00:21:31.035Z,11.59
2018-09-02T00:23:58.612Z,11.59
2018-09-02T00:26:26.198Z,11.60
2018-09-02T00:28:53.815Z,11.59
2018-09-02T00:31:21.439Z,11.55
2018-09-02T00:33:51.455Z,11.52
2018-09-02T00:36:19.135Z,11.44
2018-09-02T00:38:47.788Z,11.37
2018-09-02T00:41:15.788Z,11.30
2018-09-02T00:43:43.720Z,11.23
2018-09-02T00:46:11.356Z,11.17
2018-09-02T00:48:39.395Z,11.12
2018-09-02T00:51:07.003Z,11.08
2018-09-02T00:53:34.718Z,11.04
2018-09-02T00:56:02.828Z,11.02
2018-09-02T00:58:31.483Z,11.02
2018-09-02T01:00:59.099Z,10.99
2018-09-02T01:03:26.994Z,10.98
2018-09-02T01:05:54.610Z,10.98
2018-09-02T01:08:22.339Z,10.95
2018-09-02T01:10:50.594Z,10.91
2018-09-02T01:13:18.478Z,10.86
2018-09-02T01:15:46.685Z,10.84
2018-09-02T01:18:15.320Z,10.79
2018-09-02T01:20:43.386Z,10.78
2018-09-02T01:23:11.095Z,10.76
2018-09-02T01:25:39.330Z,10.76
2018-09-02T01:28:07.315Z,10.75
2018-09-02T01:30:34.970Z,10.76
2018-09-02T01:33:02.567Z,10.76
2018-09-02T01:35:34.521Z,10.76
2018-09-02T01:38:03.479Z,10.74
2018-09-02T01:40:31.190Z,10.71
2018-09-02T01:42:59.124Z,10.69
2018-09-02T01:45:26.745Z,10.65
2018-09-02T01:47:54.350Z,10.63
2018-09-02T01:50:21.974Z,10.60
2018-09-02T01:52:50.179Z,10.60
2018-09-02T01:55:17.799Z,10.57
2018-09-02T01:57:45.389Z,10.57
2018-09-02T02:00:13.380Z,10.57
2018-09-02T02:02:41.045Z,10.56
2018-09-02T02:05:08.644Z,10.57
2018-09-02T02:07:36.691Z,10.58
2018-09-02T02:10:04.301Z,10.57
2018-09-02T02:12:31.965Z,10.58
2018-09-02T02:15:00.076Z,10.57
2018-09-02T02:17:27.786Z,10.55
2018-09-02T02:19:55.495Z,10.53
2018-09-02T02:22:23.495Z,10.49
2018-09-02T02:24:51.075Z,10.46
2018-09-02T02:27:18.692Z,10.44
2018-09-02T02:29:46.715Z,10.41
2018-09-02T02:32:14.593Z,10.38
2018-09-02T02:34:42.247Z,10.35
2018-09-02T02:37:10.310Z,10.33
2018-09-02T02:39:37.897Z,10.30
2018-09-02T02:42:05.500Z,10.27
2018-09-02T02:44:33.557Z,10.24
2018-09-02T02:47:01.320Z,10.20
2018-09-02T02:49:28.928Z,10.17
2018-09-02T02:51:57.110Z,10.15
2018-09-02T02:54:24.716Z,10.12
2018-09-02T02:56:52.337Z,10.10
2018-09-02T02:59:20.459Z,10.07
2018-09-02T03:01:48.036Z,10.06
2018-09-02T03:04:15.638Z,10.04
2018-09-02T03:06:43.639Z,10.05
2018-09-02T03:09:12.357Z,10.02
2018-09-02T03:11:40.109Z,10.00
2018-09-02T03:14:08.666Z,9.98
2018-09-02T03:16:36.279Z,9.96
2018-09-02T03:19:03.951Z,9.93
2018-09-02T03:21:32.051Z,9.89
2018-09-02T03:23:59.635Z,9.89
2018-09-02T03:26:27.221Z,9.88
2018-09-02T03:28:54.827Z,9.86
2018-09-02T03:31:22.447Z,9.86
2018-09-02T03:33:50.060Z,9.83
2018-09-02T03:36:18.145Z,9.83
2018-09-02T03:38:45.745Z,9.82
2018-09-02T03:41:13.327Z,9.81
2018-09-02T03:43:40.956Z,9.82
2018-09-02T03:46:08.959Z,9.83
2018-09-02T03:48:36.583Z,9.86
2018-09-02T03:51:04.192Z,9.86
2018-09-02T03:53:31.788Z,9.83
2018-09-02T03:55:59.820Z,9.84
2018-09-02T03:58:27.438Z,9.85
2018-09-02T04:00:55.075Z,9.84
2018-09-02T04:03:22.734Z,9.82
2018-09-02T04:05:50.628Z,9.79
2018-09-02T04:08:18.219Z,9.77
2018-09-02T04:10:45.809Z,9.76
2018-09-02T04:13:13.428Z,9.73
2018-09-02T04:15:41.515Z,9.71
2018-09-02T04:18:09.124Z,9.68
2018-09-02T04:20:37.497Z,9.65
2018-09-02T04:23:05.946Z,9.62
2018-09-02T04:25:34.441Z,9.61
2018-09-02T04:28:02.022Z,9.60
2018-09-02T04:30:30.168Z,9.60
2018-09-02T04:32:58.317Z,9.59
2018-09-02T04:35:26.232Z,9.57
2018-09-02T04:37:54.842Z,9.55
2018-09-02T04:40:22.978Z,9.53
2018-09-02T04:42:50.886Z,9.52
2018-09-02T04:45:18.567Z,9.51
2018-09-02T04:47:46.246Z,9.48
2018-09-02T04:50:15.713Z,9.48
2018-09-02T04:52:43.855Z,9.47
2018-09-02T04:55:11.550Z,9.47
2018-09-02T04:57:39.278Z,9.46
2018-09-02T05:00:08.054Z,9.45
2018-09-02T05:02:35.667Z,9.46
2018-09-02T05:05:03.292Z,9.47
2018-09-02T05:07:30.908Z,9.47
2018-09-02T05:09:58.860Z,9.47
2018-09-02T05:12:26.523Z,9.47
2018-09-02T05:14:54.836Z,9.48
2018-09-02T05:17:23.714Z,9.50
2018-09-02T05:19:51.687Z,9.54
2018-09-02T05:22:19.367Z,9.58
2018-09-02T05:24:47.208Z,9.64
2018-09-02T05:27:15.179Z,9.69
2018-09-02T05:29:42.779Z,9.74
2018-09-02T05:32:10.347Z,9.79
2018-09-02T05:34:38.321Z,9.88
2018-09-02T05:37:06.175Z,9.99
2018-09-02T05:39:34.458Z,10.09
2018-09-02T05:42:03.122Z,10.18
2018-09-02T05:44:30.725Z,10.31
2018-09-02T05:46:58.355Z,10.40
2018-09-02T05:49:25.973Z,10.50
2018-09-02T05:51:54.011Z,10.65
2018-09-02T05:54:21.650Z,10.78
2018-09-02T05:56:49.261Z,10.89
2018-09-02T05:59:17.253Z,10.98
2018-09-02T06:01:44.873Z,11.04
2018-09-02T06:04:12.502Z,11.08
2018-09-02T06:06:40.469Z,11.16
2018-09-02T06:09:08.079Z,11.25
2018-09-02T06:11:35.719Z,11.33
2018-09-02T06:14:04.316Z,11.39
2018-09-02T06:16:31.940Z,11.42
2018-09-02T06:18:59.551Z,11.47
2018-09-02T06:21:27.510Z,11.51
2018-09-02T06:23:55.455Z,11.59
2018-09-02T06:26:23.069Z,11.69
2018-09-02T06:28:50.699Z,11.78
2018-09-02T06:31:18.681Z,11.85
2018-09-02T06:33:46.274Z,11.96
2018-09-02T06:36:13.935Z,12.07
2018-09-02T06:38:41.607Z,12.14
2018-09-02T06:41:09.514Z,12.17
2018-09-02T06:43:37.182Z,12.24
2018-09-02T06:46:05.440Z,12.31
2018-09-02T06:48:33.850Z,12.36
2018-09-02T06:51:01.478Z,12.46
2018-09-02T06:53:29.083Z,12.54
2018-09-02T06:55:57.006Z,12.64
2018-09-02T06:58:24.788Z,12.79
2018-09-02T07:00:52.406Z,12.93
2018-09-02T07:03:20.550Z,13.07
2018-09-02T07:05:48.343Z,13.20
2018-09-02T07:08:16.962Z,13.36
2018-09-02T07:10:45.646Z,13.50
2018-09-02T07:13:15.274Z,13.63
2018-09-02T07:15:42.896Z,13.80
2018-09-02T07:18:16.432Z,13.98
2018-09-02T07:20:45.397Z,14.19
2018-09-02T07:23:13.007Z,14.37
2018-09-02T07:25:41.036Z,14.58
2018-09-02T07:28:08.622Z,14.76
2018-09-02T07:30:36.266Z,14.90
2018-09-02T07:33:04.321Z,15.05
2018-09-02T07:35:32.030Z,15.21
2018-09-02T07:37:59.816Z,15.37
2018-09-02T07:40:28.790Z,15.52
2018-09-02T07:42:56.410Z,15.65
2018-09-02T07:45:24.548Z,15.78
2018-09-02T07:47:52.587Z,15.89
2018-09-02T07:50:20.183Z,16.02
2018-09-02T07:52:48.700Z,16.14
2018-09-02T07:55:16.815Z,16.28
2018-09-02T07:57:44.416Z,16.41
2018-09-02T08:00:12.972Z,16.52
2018-09-02T08:02:41.494Z,16.64
2018-09-02T08:05:09.348Z,16.76
2018-09-02T08:07:37.263Z,16.85
2018-09-02T08:10:05.332Z,16.98
2018-09-02T08:12:33.047Z,17.14
2018-09-02T08:15:01.203Z,17.26
2018-09-02T08:17:30.196Z,17.39
2018-09-02T08:19:58.889Z,17.49
2018-09-02T08:22:26.766Z,17.61
2018-09-02T08:24:54.911Z,17.74
2018-09-02T08:29:47.720Z,17.99
2018-09-02T08:32:15.605Z,18.19
2018-09-02T08:34:43.191Z,18.37
2018-09-02T08:37:11.527Z,18.53
2018-09-02T08:39:39.498Z,18.69
2018-09-02T08:42:07.136Z,18.85
2018-09-02T08:44:34.755Z,18.97
2018-09-02T08:47:02.826Z,19.08
2018-09-02T08:49:30.430Z,19.20
2018-09-02T08:52:01.241Z,19.35
2018-09-02T08:54:29.172Z,19.47
2018-09-02T08:56:56.774Z,19.59
2018-09-02T08:59:24.751Z,19.73
2018-09-02T09:01:52.782Z,19.88
2018-09-02T09:04:20.391Z,20.02
2018-09-02T09:06:47.997Z,20.16
2018-09-02T09:09:17.583Z,20.35
2018-09-02T09:11:44.954Z,20.52
2018-09-02T09:14:13.613Z,20.67
2018-09-02T09:16:42.628Z,20.84
2018-09-02T09:19:10.239Z,20.95
2018-09-02T09:21:38.195Z,21.07
2018-09-02T09:24:07.127Z,21.19
2018-09-02T09:26:34.787Z,21.29
2018-09-02T09:29:02.570Z,21.43
2018-09-02T09:31:30.520Z,21.55
2018-09-02T09:33:59.263Z,21.72
2018-09-02T09:36:26.855Z,21.86
2018-09-02T09:38:55.436Z,22.06
2018-09-02T09:41:23.005Z,22.30
2018-09-02T09:43:50.583Z,22.72
2018-09-02T09:46:18.660Z,23.21
2018-09-02T09:48:46.275Z,23.74
2018-09-02T09:51:14.604Z,24.28
2018-09-02T09:53:42.574Z,24.73
2018-09-02T09:56:10.923Z,25.20
2018-09-02T09:58:39.470Z,25.67
2018-09-02T10:01:07.468Z,26.15
2018-09-02T10:03:36.648Z,26.59
2018-09-02T10:06:05.366Z,26.97
2018-09-02T10:08:33.347Z,27.23
2018-09-02T10:11:02.578Z,27.52
2018-09-02T10:13:31.563Z,27.85
2018-09-02T10:15:59.480Z,28.22
2018-09-02T10:18:27.055Z,28.44
2018-09-02T10:20:54.624Z,28.62
2018-09-02T10:23:22.710Z,28.87
2018-09-02T10:25:50.895Z,29.21
2018-09-02T10:28:19.611Z,29.45
2018-09-02T10:30:48.529Z,29.70
2018-09-02T10:33:16.974Z,29.93
2018-09-02T10:35:44.631Z,30.09
2018-09-02T10:38:12.650Z,30.33
2018-09-02T10:40:40.267Z,30.42
2018-09-02T10:43:08.434Z,30.77
2018-09-02T10:45:37.539Z,30.98
2018-09-02T10:48:05.136Z,31.15
2018-09-02T10:50:32.733Z,31.32
2018-09-02T10:53:01.347Z,31.50
2018-09-02T10:55:28.953Z,31.68
2018-09-02T10:57:57.125Z,32.01
2018-09-02T11:00:25.167Z,32.25
2018-09-02T11:02:54.292Z,32.37
2018-09-02T11:05:21.916Z,32.45
2018-09-02T11:07:49.853Z,32.51
2018-09-02T11:10:19.203Z,32.68
2018-09-02T11:12:46.825Z,32.98
2018-09-02T11:15:15.282Z,33.01
2018-09-02T11:17:43.010Z,32.94
2018-09-02T11:20:11.071Z,32.98
2018-09-02T11:22:40.831Z,33.05
2018-09-02T11:25:08.740Z,33.06
2018-09-02T11:27:37.155Z,33.08
2018-09-02T11:30:05.205Z,33.11
2018-09-02T11:32:34.459Z,33.28
2018-09-02T11:35:02.090Z,33.51
2018-09-02T11:37:30.187Z,33.56
2018-09-02T11:39:57.890Z,33.66
2018-09-02T11:42:26.046Z,33.94
2018-09-02T11:44:54.080Z,34.16
2018-09-02T11:47:21.888Z,34.14
2018-09-02T11:49:49.474Z,34.36
2018-09-02T11:52:18.213Z,34.43
2018-09-02T11:54:47.772Z,34.46
2018-09-02T11:57:15.520Z,34.59
2018-09-02T11:59:46.498Z,34.69
2018-09-02T12:02:14.269Z,34.62
2018-09-02T12:04:44.729Z,34.52
2018-09-02T12:07:14.466Z,34.48
2018-09-02T12:09:42.530Z,34.64
2018-09-02T12:12:10.157Z,34.68
2018-09-02T12:14:38.248Z,34.69
2018-09-02T12:17:05.872Z,34.82
2018-09-02T12:19:33.511Z,34.98
2018-09-02T12:22:01.603Z,35.06
2018-09-02T12:24:29.190Z,35.38
2018-09-02T12:26:56.788Z,35.53
2018-09-02T12:29:24.338Z,35.59
2018-09-02T12:31:52.747Z,35.40
2018-09-02T12:34:20.839Z,35.24
2018-09-02T12:36:49.054Z,35.24
2018-09-02T12:39:18.905Z,35.20
2018-09-02T12:41:49.679Z,35.30
2018-09-02T12:44:17.299Z,35.43
2018-09-02T12:46:46.289Z,35.61
2018-09-02T12:49:14.267Z,35.59
2018-09-02T12:51:42.018Z,35.58
2018-09-02T12:54:10.358Z,35.84
2018-09-02T12:56:38.396Z,35.95
2018-09-02T12:59:06.050Z,35.90
2018-09-02T13:01:33.657Z,35.67
2018-09-02T13:04:02.014Z,35.20
2018-09-02T13:06:30.219Z,34.72
2018-09-02T13:08:58.466Z,34.28
2018-09-02T13:11:26.921Z,33.82
2018-09-02T13:13:55.442Z,33.40
2018-09-02T13:16:24.131Z,33.07
2018-09-02T13:18:52.845Z,32.82
2018-09-02T13:21:25.515Z,32.55
2018-09-02T13:23:53.167Z,32.20
2018-09-02T13:26:22.015Z,31.93
2018-09-02T13:28:50.218Z,31.56
2018-09-02T13:31:18.332Z,31.21
2018-09-02T13:33:46.431Z,30.94
2018-09-02T13:36:14.055Z,30.91
2018-09-02T13:38:43.948Z,30.88
2018-09-02T13:41:12.014Z,30.75
2018-09-02T13:43:40.266Z,30.54
2018-09-02T13:46:07.849Z,30.23
2018-09-02T13:48:36.242Z,30.00
2018-09-02T13:51:03.865Z,29.77
2018-09-02T13:53:32.319Z,29.52
2018-09-02T13:56:00.394Z,29.30
2018-09-02T13:58:28.695Z,29.18
2018-09-02T14:00:56.293Z,29.05
2018-09-02T14:03:27.387Z,28.83
2018-09-02T14:05:55.907Z,28.54
2018-09-02T14:08:23.711Z,28.37
2018-09-02T14:10:51.700Z,28.22
2018-09-02T14:13:20.986Z,28.14
2018-09-02T14:15:48.610Z,28.00
2018-09-02T14:18:16.629Z,27.97
2018-09-02T14:20:45.403Z,27.91
2018-09-02T14:23:13.149Z,27.82
2018-09-02T14:25:41.237Z,27.78
2018-09-02T14:28:08.911Z,27.75
2018-09-02T14:30:36.519Z,27.74
2018-09-02T14:33:04.488Z,27.67
2018-09-02T14:35:33.070Z,27.60
2018-09-02T14:38:00.966Z,27.58
2018-09-02T14:40:28.955Z,27.68
2018-09-02T14:42:56.582Z,27.84
2018-09-02T14:45:24.209Z,27.87
2018-09-02T14:47:52.967Z,27.84
2018-09-02T14:50:23.894Z,27.87
2018-09-02T14:52:51.468Z,27.95
2018-09-02T14:55:20.285Z,27.86
2018-09-02T14:57:50.115Z,27.99
2018-09-02T15:00:18.670Z,28.30
2018-09-02T15:02:47.066Z,28.57
2018-09-02T15:05:14.676Z,28.30
2018-09-02T15:07:42.278Z,28.07
2018-09-02T15:10:10.306Z,28.10
2018-09-02T15:12:37.922Z,28.20
2018-09-02T15:15:06.467Z,28.17
2018-09-02T15:17:34.463Z,28.09
2018-09-02T15:20:02.042Z,27.88
2018-09-02T15:22:29.635Z,27.70
2018-09-02T15:25:00.438Z,27.40
2018-09-02T15:27:28.229Z,27.00
2018-09-02T15:29:55.940Z,26.55
2018-09-02T15:32:23.930Z,26.13
2018-09-02T15:34:52.466Z,25.71
2018-09-02T15:37:22.947Z,25.38
2018-09-02T15:39:56.726Z,25.06
2018-09-02T15:42:25.682Z,24.81
2018-09-02T15:44:53.398Z,24.63
2018-09-02T15:47:21.271Z,24.48
2018-09-02T15:49:50.059Z,24.36
2018-09-02T15:52:18.506Z,24.22
2018-09-02T15:54:46.530Z,24.10
2018-09-02T15:57:15.290Z,24.00
2018-09-02T15:59:45.407Z,23.96
2018-09-02T16:02:14.215Z,23.87
2018-09-02T16:04:42.019Z,23.77
2018-09-02T16:07:09.715Z,23.67
2018-09-02T16:09:39.608Z,23.57
2018-09-02T16:12:11.682Z,23.49
2018-09-02T16:14:40.083Z,23.43
2018-09-02T16:17:08.919Z,23.44
2018-09-02T16:19:37.577Z,23.45
2018-09-02T16:22:05.207Z,23.47
2018-09-02T16:24:33.210Z,23.46
2018-09-02T16:27:00.912Z,23.40
2018-09-02T16:29:29.363Z,23.32
2018-09-02T16:31:57.296Z,23.23
2018-09-02T16:34:25.721Z,23.12
2018-09-02T16:36:53.342Z,23.04
2018-09-02T16:39:22.279Z,22.94
2018-09-02T16:41:51.083Z,22.87
2018-09-02T16:44:19.359Z,22.80
2018-09-02T16:46:48.476Z,22.75
2018-09-02T16:49:16.652Z,22.67
2018-09-02T16:51:45.921Z,22.62
2018-09-02T16:54:14.539Z,22.54
2018-09-02T16:56:42.283Z,22.48
2018-09-02T16:59:09.965Z,22.42
2018-09-02T17:01:38.100Z,22.35
2018-09-02T17:04:09.530Z,22.29
2018-09-02T17:06:38.257Z,22.22
2018-09-02T17:09:06.204Z,22.16
2018-09-02T17:11:34.930Z,22.10
2018-09-02T17:14:03.207Z,22.04
2018-09-02T17:16:31.091Z,21.98
2018-09-02T17:19:04.155Z,21.93
2018-09-02T17:21:31.788Z,21.87
2018-09-02T17:23:59.860Z,21.82
2018-09-02T17:26:27.476Z,21.78
2018-09-02T17:28:55.104Z,21.74
2018-09-02T17:31:23.387Z,21.70
2018-09-02T17:33:51.016Z,21.67
2018-09-02T17:36:20.118Z,21.64
2018-09-02T17:38:48.366Z,21.62
2018-09-02T17:41:16.003Z,21.58
2018-09-02T17:43:44.022Z,21.54
2018-09-02T17:46:12.620Z,21.50
2018-09-02T17:48:41.096Z,21.46
2018-09-02T17:51:09.756Z,21.43
2018-09-02T17:53:37.405Z,21.38
2018-09-02T17:56:05.043Z,21.34
2018-09-02T17:58:33.730Z,21.33
2018-09-02T18:01:06.791Z,21.31
2018-09-02T18:03:34.665Z,21.26
2018-09-02T18:06:04.513Z,21.25
2018-09-02T18:08:33.115Z,21.22
2018-09-02T18:11:01.216Z,21.18
2018-09-02T18:13:29.441Z,21.17
2018-09-02T18:15:57.127Z,21.13
2018-09-02T18:18:26.243Z,21.11
2018-09-02T18:20:54.006Z,21.09
2018-09-02T18:23:22.633Z,21.06
2018-09-02T18:25:50.660Z,21.02
2018-09-02T18:28:21.319Z,21.01
2018-09-02T18:30:49.627Z,21.00
2018-09-02T18:33:20.601Z,20.96
2018-09-02T18:35:48.883Z,20.93
2018-09-02T18:38:16.610Z,20.91
2018-09-02T18:40:45.263Z,20.86
2018-09-02T18:43:12.892Z,20.83
2018-09-02T18:45:40.529Z,20.82
2018-09-02T18:48:09.055Z,20.81
2018-09-02T18:50:37.288Z,20.78
2018-09-02T18:53:05.939Z,20.75
2018-09-02T18:55:33.968Z,20.74
2018-09-02T18:58:02.567Z,20.71
2018-09-02T19:00:31.252Z,20.70
2018-09-02T19:03:00.373Z,20.68
2018-09-02T19:05:30.654Z,20.67
2018-09-02T19:08:00.587Z,20.65
2018-09-02T19:10:28.520Z,20.64
2018-09-02T19:12:56.362Z,20.63
2018-09-02T19:15:25.707Z,20.62
2018-09-02T19:18:00.447Z,20.60
2018-09-02T19:20:28.038Z,20.60
2018-09-02T19:22:57.205Z,20.58
2018-09-02T19:25:31.448Z,20.56
2018-09-02T19:28:00.461Z,20.53
2018-09-02T19:30:30.340Z,20.51
2018-09-02T19:32:58.576Z,20.49
2018-09-02T19:35:27.780Z,20.47
2018-09-02T19:37:56.477Z,20.45
2018-09-02T19:40:24.770Z,20.43
2018-09-02T19:45:27.109Z,20.39
2018-09-02T19:47:58.618Z,20.37
2018-09-02T19:50:26.355Z,20.34
2018-09-02T19:52:54.727Z,20.34
2018-09-02T19:55:26.227Z,20.32
2018-09-02T19:57:54.661Z,20.30
2018-09-02T20:00:23.277Z,20.29
2018-09-02T20:02:55.238Z,20.27
2018-09-02T20:05:23.834Z,20.27
2018-09-02T20:07:53.668Z,20.24
2018-09-02T20:10:35.131Z,20.24
2018-09-02T20:13:04.824Z,20.21
2018-09-02T20:15:34.723Z,20.19
2018-09-02T20:18:04.911Z,20.18
2018-09-02T20:20:32.533Z,20.15
2018-09-02T20:23:01.500Z,20.13
2018-09-02T20:25:31.399Z,20.12
2018-09-02T20:28:00.914Z,20.11
2018-09-02T20:30:29.082Z,20.08
2018-09-02T20:32:56.738Z,20.07
2018-09-02T20:35:26.237Z,20.05
2018-09-02T20:37:54.889Z,20.02
2018-09-02T20:40:22.595Z,20.02
2018-09-02T20:42:50.889Z,20.01
2018-09-02T20:45:19.548Z,19.99
2018-09-02T20:47:47.235Z,19.98
2018-09-02T20:50:15.974Z,19.97
2018-09-02T20:52:44.162Z,19.95
2018-09-02T20:55:14.493Z,19.95
2018-09-02T20:57:43.341Z,19.94
2018-09-02T21:00:12.361Z,19.92
2018-09-02T21:02:40.088Z,19.91
2018-09-02T21:05:08.496Z,19.90
2018-09-02T21:07:36.518Z,19.89
2018-09-02T21:10:04.298Z,19.89
2018-09-02T21:12:35.626Z,19.88
2018-09-02T21:15:04.389Z,19.87
2018-09-02T21:17:33.803Z,19.85
2018-09-02T21:20:03.111Z,19.84
2018-09-02T21:22:31.167Z,19.82
2018-09-02T21:25:00.061Z,19.82
2018-09-02T21:27:28.398Z,19.82
2018-09-02T21:29:56.473Z,19.83
2018-09-02T21:32:25.258Z,19.80
2018-09-02T21:34:52.909Z,19.78
2018-09-02T21:37:32.253Z,19.77
2018-09-02T21:39:59.921Z,19.75
2018-09-02T21:42:28.681Z,19.74
2018-09-02T21:44:56.601Z,19.73
2018-09-02T21:47:25.746Z,19.72
2018-09-02T21:49:53.786Z,19.70
2018-09-02T21:52:21.554Z,19.70
2018-09-02T21:54:50.337Z,19.68
2018-09-02T21:57:20.823Z,19.67
2018-09-02T21:59:48.554Z,19.67
2018-09-02T22:02:16.250Z,19.65
2018-09-02T22:04:44.465Z,19.64
2018-09-02T22:07:12.320Z,19.64
2018-09-02T22:09:39.920Z,19.63
2018-09-02T22:12:07.949Z,19.62
2018-09-02T22:14:36.113Z,19.62
2018-09-02T22:17:04.456Z,19.62
2018-09-02T22:19:32.447Z,19.59
2018-09-02T22:22:00.047Z,19.58
2018-09-02T22:24:27.657Z,19.57
2018-09-02T22:26:56.554Z,19.56
2018-09-02T22:29:24.436Z,19.56
2018-09-02T22:31:52.587Z,19.56
2018-09-02T22:34:20.566Z,19.54
2018-09-02T22:36:49.000Z,19.53
2018-09-02T22:39:16.621Z,19.54
2018-09-02T22:41:45.177Z,19.53
2018-09-02T22:44:15.674Z,19.51
2018-09-02T22:46:43.229Z,19.51
2018-09-02T22:49:10.836Z,19.50
2018-09-02T22:51:38.778Z,19.50
2018-09-02T22:54:07.213Z,19.49
2018-09-02T22:56:35.803Z,19.48
2018-09-02T22:59:03.846Z,19.46
2018-09-02T23:01:31.444Z,19.46
2018-09-02T23:03:59.014Z,19.45
2018-09-02T23:06:26.618Z,19.43
2018-09-02T23:08:54.553Z,19.42
2018-09-02T23:11:25.810Z,19.40
2018-09-02T23:13:53.404Z,19.38
2018-09-02T23:16:21.482Z,19.36
2018-09-02T23:18:49.084Z,19.35
2018-09-02T23:21:16.694Z,19.34
2018-09-02T23:23:44.823Z,19.33
2018-09-02T23:26:13.237Z,19.31
2018-09-02T23:28:42.094Z,19.31
2018-09-02T23:31:10.619Z,19.29
2018-09-02T23:33:38.206Z,19.29
2018-09-02T23:36:05.764Z,19.26
2018-09-02T23:38:33.326Z,19.25
2018-09-02T23:41:01.274Z,19.25
2018-09-02T23:43:28.875Z,19.25
2018-09-02T23:45:56.468Z,19.22
2018-09-02T23:51:04.766Z,19.16
2018-09-02T23:53:32.448Z,19.12
2018-09-02T23:56:00.107Z,19.09
2018-09-02T23:58:27.738Z,19.06
